createdAt,value
2019-03-06T00:00:23.924Z,89.70
2019-03-06T00:02:52.364Z,88.80
2019-03-06T00:05:20.859Z,89.40
2019-03-06T00:07:49.472Z,88.20
2019-03-06T00:10:30.764Z,89.40
2019-03-06T00:13:00.260Z,89.70
2019-03-06T00:15:28.664Z,90.00
2019-03-06T00:17:57.136Z,89.10
2019-03-06T00:20:25.594Z,88.70
2019-03-06T00:22:54.153Z,88.60
2019-03-06T00:25:22.559Z,88.10
2019-03-06T00:27:50.977Z,87.40
2019-03-06T00:30:20.089Z,87.10
2019-03-06T00:32:48.494Z,85.40
2019-03-06T00:35:27.658Z,84.70
2019-03-06T00:37:56.046Z,84.40
2019-03-06T00:40:38.074Z,84.20
2019-03-06T00:43:06.573Z,84.40
2019-03-06T00:45:35.282Z,85.60
2019-03-06T00:48:03.715Z,86.90
2019-03-06T00:50:32.178Z,87.80
2019-03-06T00:53:00.885Z,88.20
2019-03-06T00:55:29.471Z,88.10
2019-03-06T00:57:58.098Z,87.70
2019-03-06T01:00:26.871Z,87.30
2019-03-06T01:02:55.351Z,86.60
2019-03-06T01:05:24.562Z,85.80
2019-03-06T01:07:53.034Z,84.80
2019-03-06T01:10:21.517Z,84.10
2019-03-06T01:12:49.905Z,83.80
2019-03-06T01:15:19.143Z,83.80
2019-03-06T01:17:48.087Z,83.40
2019-03-06T01:20:16.541Z,83.30
2019-03-06T01:22:45.026Z,83.30
2019-03-06T01:25:21.302Z,83.10
2019-03-06T01:27:49.795Z,83.10
2019-03-06T01:30:26.621Z,82.70
2019-03-06T01:32:58.180Z,82.60
2019-03-06T01:35:44.681Z,82.70
2019-03-06T01:38:14.744Z,82.70
2019-03-06T01:40:44.783Z,82.40
2019-03-06T01:43:31.507Z,82.30
2019-03-06T01:46:00.180Z,82.40
2019-03-06T01:48:28.632Z,82.40
2019-03-06T01:50:57.171Z,83.40
2019-03-06T01:53:25.718Z,82.50
2019-03-06T01:55:54.188Z,82.50
2019-03-06T01:58:22.977Z,82.40
2019-03-06T02:00:51.640Z,82.50
2019-03-06T02:03:20.129Z,82.50
2019-03-06T02:05:48.630Z,82.50
2019-03-06T02:08:17.120Z,82.40
2019-03-06T02:10:45.727Z,82.40
2019-03-06T02:13:14.183Z,83.00
2019-03-06T02:15:42.630Z,83.10
2019-03-06T02:18:11.123Z,82.90
2019-03-06T02:20:39.653Z,82.70
2019-03-06T02:23:08.119Z,82.40
2019-03-06T02:25:36.909Z,82.60
2019-03-06T02:28:05.371Z,82.60
2019-03-06T02:30:33.828Z,83.30
2019-03-06T02:33:02.313Z,84.10
2019-03-06T02:35:30.783Z,84.70
2019-03-06T02:37:59.285Z,84.90
2019-03-06T02:40:27.777Z,86.30
2019-03-06T02:42:56.166Z,86.40
2019-03-06T02:45:24.602Z,86.50
2019-03-06T02:47:53.036Z,86.90
2019-03-06T02:50:21.791Z,86.70
2019-03-06T02:52:50.289Z,86.90
2019-03-06T02:55:18.879Z,85.70
2019-03-06T02:57:48.941Z,85.30
2019-03-06T03:00:34.904Z,84.70
2019-03-06T03:03:15.849Z,84.50
2019-03-06T03:05:48.570Z,83.80
2019-03-06T03:08:17.293Z,82.60
2019-03-06T03:10:46.262Z,82.30
2019-03-06T03:13:14.717Z,82.20
2019-03-06T03:15:43.658Z,82.40
2019-03-06T03:18:12.053Z,82.90
2019-03-06T03:20:40.576Z,83.00
2019-03-06T03:23:08.981Z,83.50
2019-03-06T03:25:37.451Z,83.80
2019-03-06T03:28:05.912Z,85.20
2019-03-06T03:30:34.346Z,86.40
2019-03-06T03:33:02.914Z,87.00
2019-03-06T03:35:31.302Z,87.70
2019-03-06T03:38:00.025Z,88.00
2019-03-06T03:40:28.527Z,87.80
2019-03-06T03:42:56.921Z,88.00
2019-03-06T03:45:25.483Z,87.80
2019-03-06T03:47:53.966Z,88.10
2019-03-06T03:50:22.737Z,87.80
2019-03-06T03:52:51.261Z,88.70
2019-03-06T03:55:19.652Z,89.40
2019-03-06T03:57:48.200Z,90.10
2019-03-06T04:00:20.868Z,90.10
2019-03-06T04:02:49.267Z,90.10
2019-03-06T04:05:17.730Z,89.70
2019-03-06T04:07:46.346Z,89.90
2019-03-06T04:10:15.578Z,90.60
2019-03-06T04:12:43.983Z,89.90
2019-03-06T04:15:17.308Z,88.70
2019-03-06T04:17:45.875Z,90.00
2019-03-06T04:20:15.317Z,89.00
2019-03-06T04:22:43.851Z,89.50
2019-03-06T04:25:12.407Z,89.70
2019-03-06T04:27:40.873Z,89.20
2019-03-06T04:30:14.003Z,89.30
2019-03-06T04:32:42.425Z,88.70
2019-03-06T04:35:10.974Z,89.00
2019-03-06T04:37:39.442Z,89.90
2019-03-06T04:40:13.254Z,89.20
2019-03-06T04:42:41.674Z,89.20
2019-03-06T04:45:12.166Z,88.40
2019-03-06T04:47:40.660Z,87.90
2019-03-06T04:50:11.963Z,87.40
2019-03-06T04:52:40.746Z,86.90
2019-03-06T04:55:10.462Z,86.00
2019-03-06T04:57:38.934Z,85.90
2019-03-06T05:00:17.847Z,86.00
2019-03-06T05:02:46.295Z,86.40
2019-03-06T05:05:14.763Z,85.60
2019-03-06T05:07:43.251Z,85.30
2019-03-06T05:10:12.646Z,84.90
2019-03-06T05:12:41.073Z,84.60
2019-03-06T05:15:12.144Z,84.90
2019-03-06T05:17:42.247Z,85.20
2019-03-06T05:20:10.722Z,85.20
2019-03-06T05:22:39.148Z,85.40
2019-03-06T05:25:07.557Z,86.10
2019-03-06T05:27:36.036Z,86.60
2019-03-06T05:30:07.239Z,87.30
2019-03-06T05:32:36.612Z,87.90
2019-03-06T05:35:11.300Z,88.20
2019-03-06T05:37:43.070Z,89.20
2019-03-06T05:40:11.736Z,89.60
2019-03-06T05:42:40.126Z,89.90
2019-03-06T05:45:08.842Z,90.70
2019-03-06T05:47:37.310Z,89.90
2019-03-06T05:50:07.320Z,90.00
2019-03-06T05:52:35.733Z,91.70
2019-03-06T05:55:06.731Z,90.90
2019-03-06T05:57:35.119Z,92.00
2019-03-06T06:00:07.019Z,92.50
2019-03-06T06:02:35.497Z,91.90
2019-03-06T06:05:06.183Z,92.10
2019-03-06T06:07:34.612Z,92.80
2019-03-06T06:10:03.347Z,93.20
2019-03-06T06:12:31.872Z,92.60
2019-03-06T06:15:00.357Z,93.00
2019-03-06T06:17:28.908Z,92.90
2019-03-06T06:19:57.300Z,92.10
2019-03-06T06:22:30.098Z,91.80
2019-03-06T06:24:58.618Z,91.90
2019-03-06T06:27:27.308Z,92.10
2019-03-06T06:29:55.918Z,92.00
2019-03-06T06:32:24.426Z,91.60
2019-03-06T06:34:52.904Z,91.80
2019-03-06T06:37:21.351Z,92.10
2019-03-06T06:39:49.778Z,91.80
2019-03-06T06:42:18.315Z,91.90
2019-03-06T06:44:46.818Z,91.40
2019-03-06T06:47:15.332Z,91.90
2019-03-06T06:49:43.767Z,91.40
2019-03-06T06:52:18.572Z,91.20
2019-03-06T06:54:59.160Z,91.50
2019-03-06T06:57:30.925Z,91.60
2019-03-06T07:00:11.545Z,91.50
2019-03-06T07:03:00.865Z,91.20
2019-03-06T07:05:37.046Z,91.40
2019-03-06T07:08:07.103Z,91.20
2019-03-06T07:10:46.163Z,91.40
2019-03-06T07:13:32.639Z,91.70
2019-03-06T07:16:12.040Z,91.70
2019-03-06T07:18:58.191Z,91.80
2019-03-06T07:21:34.208Z,91.60
2019-03-06T07:24:07.386Z,91.50
2019-03-06T07:26:53.942Z,91.70
2019-03-06T07:29:40.554Z,91.30
2019-03-06T07:32:16.224Z,91.20
2019-03-06T07:35:35.308Z,91.50
2019-03-06T07:38:05.361Z,91.30
2019-03-06T07:40:35.434Z,91.10
2019-03-06T07:43:08.564Z,91.00
2019-03-06T07:45:55.164Z,91.20
2019-03-06T07:48:25.243Z,91.30
2019-03-06T07:50:55.276Z,91.60
2019-03-06T07:53:45.263Z,91.50
2019-03-06T07:56:15.475Z,91.60
2019-03-06T07:58:58.712Z,91.70
2019-03-06T08:01:29.625Z,91.90
2019-03-06T08:04:06.529Z,91.70
2019-03-06T08:06:34.993Z,91.90
2019-03-06T08:09:04.036Z,92.40
2019-03-06T08:11:34.089Z,91.90
2019-03-06T08:14:04.213Z,92.00
2019-03-06T08:16:34.559Z,91.90
2019-03-06T08:19:07.069Z,92.20
2019-03-06T08:21:42.807Z,92.30
2019-03-06T08:24:12.881Z,92.20
2019-03-06T08:26:41.546Z,92.30
2019-03-06T08:29:10.271Z,92.70
2019-03-06T08:31:40.340Z,92.40
2019-03-06T08:34:08.890Z,92.70
2019-03-06T08:36:37.279Z,92.80
2019-03-06T08:39:09.277Z,93.10
2019-03-06T08:41:37.745Z,92.90
2019-03-06T08:44:06.182Z,93.10
2019-03-06T08:46:42.290Z,93.70
2019-03-06T08:49:12.617Z,93.80
2019-03-06T08:51:42.655Z,94.20
2019-03-06T08:54:15.652Z,94.20
2019-03-06T08:56:57.756Z,94.00
2019-03-06T08:59:30.497Z,94.50
2019-03-06T09:02:01.239Z,94.50
2019-03-06T09:04:48.052Z,94.90
2019-03-06T09:07:21.112Z,94.70
2019-03-06T09:10:00.466Z,94.20
2019-03-06T09:12:30.533Z,94.20
2019-03-06T09:15:12.284Z,94.40
2019-03-06T09:17:42.315Z,94.40
2019-03-06T09:20:21.200Z,94.80
2019-03-06T09:23:00.274Z,94.50
2019-03-06T09:25:33.015Z,95.00
2019-03-06T09:28:03.065Z,94.60
2019-03-06T09:30:33.095Z,94.80
2019-03-06T09:33:06.258Z,94.80
2019-03-06T09:35:42.419Z,94.90
2019-03-06T09:38:24.522Z,94.70
2019-03-06T09:41:06.440Z,94.70
2019-03-06T09:43:36.558Z,95.10
2019-03-06T09:46:06.702Z,95.20
2019-03-06T09:48:36.972Z,95.00
2019-03-06T09:51:23.651Z,95.30
2019-03-06T09:53:59.924Z,95.10
2019-03-06T09:56:42.060Z,95.20
2019-03-06T09:59:15.011Z,95.60
2019-03-06T10:01:47.844Z,95.60
2019-03-06T10:04:18.044Z,95.80
2019-03-06T10:06:51.131Z,96.00
2019-03-06T10:09:33.747Z,95.80
2019-03-06T10:12:06.617Z,96.40
2019-03-06T10:14:36.661Z,96.20
2019-03-06T10:17:09.788Z,96.70
2019-03-06T10:19:45.666Z,96.00
2019-03-06T10:22:14.163Z,95.60
2019-03-06T10:24:42.619Z,96.10
2019-03-06T10:27:11.207Z,96.00
2019-03-06T10:29:39.795Z,96.30
2019-03-06T10:32:08.258Z,96.60
2019-03-06T10:34:36.791Z,96.90
2019-03-06T10:39:34.616Z,96.10
2019-03-06T10:42:03.156Z,96.00
2019-03-06T10:44:31.732Z,95.70
2019-03-06T10:47:00.276Z,95.70
2019-03-06T10:49:28.868Z,96.00
2019-03-06T10:51:57.297Z,95.90
2019-03-06T10:54:26.163Z,95.80
2019-03-06T10:56:54.621Z,96.00
2019-03-06T10:59:23.113Z,96.10
2019-03-06T11:01:51.508Z,96.10
2019-03-06T11:04:37.824Z,95.70
2019-03-06T11:07:06.496Z,96.20
2019-03-06T11:09:35.085Z,95.70
2019-03-06T11:12:03.597Z,95.80
2019-03-06T11:14:32.183Z,96.10
2019-03-06T11:17:00.618Z,96.30
2019-03-06T11:19:29.408Z,96.00
2019-03-06T11:21:57.804Z,96.40
2019-03-06T11:24:26.339Z,95.90
2019-03-06T11:26:54.913Z,95.80
2019-03-06T11:29:23.453Z,96.20
2019-03-06T11:31:51.920Z,96.20
2019-03-06T11:34:20.669Z,96.20
2019-03-06T11:36:49.205Z,96.20
2019-03-06T11:39:17.637Z,96.50
2019-03-06T11:41:46.220Z,96.60
2019-03-06T11:44:14.681Z,96.20
2019-03-06T11:46:43.237Z,96.30
2019-03-06T11:49:11.706Z,96.40
2019-03-06T11:51:40.087Z,96.20
2019-03-06T11:54:08.953Z,95.90
2019-03-06T11:56:37.368Z,96.00
2019-03-06T11:59:05.831Z,95.70
2019-03-06T12:01:35.343Z,95.70
2019-03-06T12:04:04.058Z,95.40
2019-03-06T12:06:32.467Z,94.90
2019-03-06T12:09:01.013Z,95.00
2019-03-06T12:11:29.815Z,95.00
2019-03-06T12:13:58.229Z,95.10
2019-03-06T12:16:26.691Z,95.40
2019-03-06T12:18:55.084Z,95.70
2019-03-06T12:21:23.518Z,96.10
2019-03-06T12:23:51.957Z,96.00
2019-03-06T12:26:20.351Z,96.60
2019-03-06T12:28:48.855Z,97.00
2019-03-06T12:31:17.287Z,97.70
2019-03-06T12:33:45.748Z,97.80
2019-03-06T12:36:14.171Z,98.00
2019-03-06T12:38:42.644Z,98.30
2019-03-06T12:41:12.708Z,98.10
2019-03-06T12:43:41.313Z,98.30
2019-03-06T12:46:23.550Z,97.90
2019-03-06T12:48:53.623Z,97.90
2019-03-06T12:51:22.010Z,97.80
2019-03-06T12:53:50.521Z,98.30
2019-03-06T12:56:19.039Z,98.10
2019-03-06T12:58:47.501Z,98.20
2019-03-06T13:01:15.969Z,98.30
2019-03-06T13:03:44.387Z,98.00
2019-03-06T13:06:23.886Z,97.90
2019-03-06T13:09:22.317Z,98.20
2019-03-06T13:11:14.763Z,98.00
2019-03-06T13:13:43.276Z,98.00
2019-03-06T13:16:11.779Z,98.00
2019-03-06T13:18:40.162Z,98.00
2019-03-06T13:21:08.732Z,98.00
2019-03-06T13:23:37.434Z,97.80
2019-03-06T13:26:10.393Z,97.90
2019-03-06T13:28:36.027Z,97.90
2019-03-06T13:31:04.796Z,97.70
2019-03-06T13:33:37.696Z,98.10
2019-03-06T13:36:06.407Z,98.40
2019-03-06T13:38:34.841Z,98.10
2019-03-06T13:41:03.403Z,98.30
2019-03-06T13:43:31.914Z,98.20
2019-03-06T13:46:00.403Z,98.40
2019-03-06T13:48:28.835Z,98.30
2019-03-06T13:50:57.382Z,97.80
2019-03-06T13:53:25.962Z,98.20
2019-03-06T13:55:54.461Z,98.20
2019-03-06T13:58:22.947Z,98.10
2019-03-06T14:00:51.447Z,97.40
2019-03-06T14:03:19.898Z,98.30
2019-03-06T14:05:48.367Z,98.00
2019-03-06T14:08:17.300Z,97.60
2019-03-06T14:10:45.848Z,98.00
2019-03-06T14:13:14.340Z,97.50
2019-03-06T14:15:42.947Z,97.60
2019-03-06T14:18:30.874Z,97.20
2019-03-06T14:20:59.431Z,97.60
2019-03-06T14:23:34.820Z,97.20
2019-03-06T14:25:58.075Z,97.30
2019-03-06T14:28:26.500Z,97.30
2019-03-06T14:30:55.037Z,97.30
2019-03-06T14:33:25.365Z,97.10
2019-03-06T14:35:53.852Z,97.20
2019-03-06T14:38:23.247Z,97.40
2019-03-06T14:40:51.992Z,97.20
2019-03-06T14:43:20.844Z,97.30
2019-03-06T14:45:49.492Z,97.40
2019-03-06T14:48:18.078Z,97.10
2019-03-06T14:50:46.535Z,96.90
2019-03-06T14:53:14.990Z,97.20
2019-03-06T14:55:43.508Z,97.10
2019-03-06T14:58:11.975Z,97.10
2019-03-06T15:00:40.664Z,97.20
2019-03-06T15:03:09.241Z,97.20
2019-03-06T15:05:46.675Z,97.30
2019-03-06T15:08:08.282Z,97.30
2019-03-06T15:10:42.866Z,97.00
2019-03-06T15:13:06.906Z,97.00
2019-03-06T15:15:35.391Z,96.90
2019-03-06T15:18:10.376Z,97.00
2019-03-06T15:20:33.996Z,96.80
2019-03-06T15:23:02.383Z,96.90
2019-03-06T15:25:31.227Z,96.60
2019-03-06T15:27:59.639Z,96.80
2019-03-06T15:30:28.129Z,96.80
2019-03-06T15:32:56.548Z,96.80
2019-03-06T15:35:25.011Z,96.70
2019-03-06T15:37:53.520Z,96.50
2019-03-06T15:40:34.024Z,96.60
2019-03-06T15:43:02.579Z,96.60
2019-03-06T15:45:34.167Z,96.60
2019-03-06T15:48:02.585Z,96.20
2019-03-06T15:50:31.131Z,96.70
2019-03-06T15:52:59.733Z,96.70
2019-03-06T15:55:28.956Z,96.60
2019-03-06T15:57:57.513Z,96.40
2019-03-06T16:00:29.011Z,96.70
2019-03-06T16:02:57.747Z,96.70
2019-03-06T16:05:26.227Z,96.80
2019-03-06T16:07:57.048Z,96.90
2019-03-06T16:10:25.993Z,96.80
2019-03-06T16:12:54.506Z,96.70
2019-03-06T16:15:24.924Z,97.00
2019-03-06T16:17:53.321Z,97.20
2019-03-06T16:20:22.553Z,97.00
2019-03-06T16:22:51.057Z,97.50
2019-03-06T16:25:19.664Z,97.10
2019-03-06T16:27:48.232Z,97.00
2019-03-06T16:30:24.562Z,97.50
2019-03-06T16:32:53.142Z,97.40
2019-03-06T16:35:21.687Z,97.20
2019-03-06T16:37:50.092Z,97.30
2019-03-06T16:40:20.489Z,97.00
2019-03-06T16:42:49.265Z,97.30
2019-03-06T16:45:24.783Z,97.30
2019-03-06T16:47:53.324Z,97.30
2019-03-06T16:50:22.123Z,97.20
2019-03-06T16:52:50.642Z,97.50
2019-03-06T16:55:23.334Z,97.10
2019-03-06T16:57:51.717Z,97.10
2019-03-06T17:00:31.654Z,97.00
2019-03-06T17:03:04.497Z,97.30
2019-03-06T17:05:33.029Z,97.60
2019-03-06T17:08:01.623Z,97.50
2019-03-06T17:10:32.379Z,97.80
2019-03-06T17:13:00.791Z,97.90
2019-03-06T17:15:30.827Z,97.80
2019-03-06T17:17:59.258Z,97.60
2019-03-06T17:20:32.837Z,97.40
2019-03-06T17:23:01.340Z,97.70
2019-03-06T17:25:29.722Z,97.50
2019-03-06T17:27:58.250Z,97.40
2019-03-06T17:30:34.481Z,97.50
2019-03-06T17:33:04.625Z,97.50
2019-03-06T17:35:33.778Z,97.40
2019-03-06T17:38:02.744Z,97.60
2019-03-06T17:40:31.351Z,97.50
2019-03-06T17:42:59.929Z,97.70
2019-03-06T17:45:28.416Z,97.50
2019-03-06T17:47:57.084Z,97.40
2019-03-06T17:50:25.770Z,97.30
2019-03-06T17:52:54.515Z,97.40
2019-03-06T17:55:23.273Z,97.40
2019-03-06T17:57:51.786Z,97.20
2019-03-06T18:00:40.818Z,97.40
2019-03-06T18:03:10.946Z,97.40
2019-03-06T18:05:39.626Z,97.70
2019-03-06T18:08:08.232Z,98.10
2019-03-06T18:10:36.732Z,98.40
2019-03-06T18:13:05.448Z,98.50
2019-03-06T18:15:33.968Z,98.30
2019-03-06T18:18:02.469Z,98.20
2019-03-06T18:20:30.909Z,98.60
2019-03-06T18:22:59.474Z,98.30
2019-03-06T18:25:28.115Z,98.30
2019-03-06T18:27:56.575Z,98.20
2019-03-06T18:30:25.371Z,97.90
2019-03-06T18:32:53.877Z,97.80
2019-03-06T18:35:22.635Z,98.00
2019-03-06T18:37:51.203Z,98.10
2019-03-06T18:40:26.286Z,98.00
2019-03-06T18:42:55.077Z,98.30
2019-03-06T18:45:23.800Z,98.50
2019-03-06T18:47:52.288Z,98.40
2019-03-06T18:50:21.765Z,98.40
2019-03-06T18:52:50.524Z,98.30
2019-03-06T18:55:19.580Z,98.50
2019-03-06T18:57:48.074Z,98.20
2019-03-06T19:00:23.227Z,98.50
2019-03-06T19:02:51.706Z,98.30
2019-03-06T19:05:20.618Z,98.70
2019-03-06T19:07:50.420Z,98.90
2019-03-06T19:10:19.930Z,99.20
2019-03-06T19:12:48.387Z,99.30
2019-03-06T19:15:21.217Z,99.30
2019-03-06T19:17:49.711Z,99.70
2019-03-06T19:20:19.569Z,99.30
2019-03-06T19:22:48.206Z,99.30
2019-03-06T19:25:16.938Z,99.20
2019-03-06T19:28:06.872Z,99.10
2019-03-06T19:30:35.510Z,99.30
2019-03-06T19:33:03.983Z,99.30
2019-03-06T19:35:32.453Z,99.40
2019-03-06T19:38:00.935Z,99.50
2019-03-06T19:40:29.593Z,99.30
2019-03-06T19:42:58.106Z,99.00
2019-03-06T19:45:26.694Z,99.20
2019-03-06T19:47:55.168Z,98.80
2019-03-06T19:50:27.342Z,98.90
2019-03-06T19:52:55.896Z,98.80
2019-03-06T19:55:25.393Z,99.10
2019-03-06T19:58:02.526Z,99.10
2019-03-06T20:00:31.945Z,99.30
2019-03-06T20:03:00.933Z,99.40
2019-03-06T20:05:31.860Z,99.90
2019-03-06T20:08:02.093Z,99.40
2019-03-06T20:10:30.522Z,99.20
2019-03-06T20:12:59.382Z,99.40
2019-03-06T20:15:27.885Z,99.50
2019-03-06T20:17:56.550Z,99.50
2019-03-06T20:20:25.119Z,99.50
2019-03-06T20:22:53.690Z,99.50
2019-03-06T20:25:22.766Z,99.50
2019-03-06T20:27:53.251Z,99.50
2019-03-06T20:30:25.896Z,99.40
2019-03-06T20:32:54.516Z,99.30
2019-03-06T20:35:24.047Z,99.40
2019-03-06T20:37:52.539Z,99.50
2019-03-06T20:40:21.297Z,99.50
2019-03-06T20:42:49.976Z,99.40
2019-03-06T20:45:19.186Z,99.50
2019-03-06T20:47:47.659Z,99.60
2019-03-06T20:50:17.584Z,99.60
2019-03-06T20:52:46.052Z,99.70
2019-03-06T20:55:16.447Z,99.60
2019-03-06T20:57:45.221Z,99.70
2019-03-06T21:00:22.896Z,99.90
2019-03-06T21:02:51.405Z,99.90
2019-03-06T21:05:19.799Z,99.90
2019-03-06T21:07:48.378Z,99.90
2019-03-06T21:10:18.931Z,99.90
2019-03-06T21:12:47.337Z,99.90
2019-03-06T21:15:19.677Z,99.90
2019-03-06T21:17:48.196Z,99.90
2019-03-06T21:20:20.881Z,99.90
2019-03-06T21:22:49.418Z,99.90
2019-03-06T21:25:20.084Z,99.90
2019-03-06T21:27:49.097Z,99.90
2019-03-06T21:30:21.870Z,99.90
2019-03-06T21:32:50.543Z,99.90
2019-03-06T21:35:38.607Z,99.90
2019-03-06T21:38:07.194Z,99.90
2019-03-06T21:40:35.674Z,99.90
2019-03-06T21:43:04.213Z,99.90
2019-03-06T21:45:33.847Z,99.90
2019-03-06T21:48:02.433Z,99.90
2019-03-06T21:50:30.841Z,99.90
2019-03-06T21:52:59.237Z,99.90
2019-03-06T21:55:28.035Z,99.90
2019-03-06T21:57:56.507Z,99.90
2019-03-06T22:00:25.286Z,99.90
2019-03-06T22:02:53.940Z,99.90
2019-03-06T22:05:22.439Z,99.90
2019-03-06T22:07:51.505Z,99.90
2019-03-06T22:10:20.160Z,99.90
2019-03-06T22:12:48.772Z,99.90
2019-03-06T22:15:23.885Z,99.90
2019-03-06T22:17:52.351Z,99.90
2019-03-06T22:20:20.924Z,99.90
2019-03-06T22:22:49.744Z,99.90
2019-03-06T22:25:18.489Z,99.90
2019-03-06T22:27:46.972Z,99.90
2019-03-06T22:30:23.093Z,99.90
2019-03-06T22:32:51.660Z,99.90
2019-03-06T22:35:20.188Z,99.90
2019-03-06T22:37:48.741Z,99.90
2019-03-06T22:40:18.755Z,99.90
2019-03-06T22:42:47.155Z,99.90
2019-03-06T22:45:16.981Z,99.90
2019-03-06T22:47:45.453Z,99.90
2019-03-06T22:50:18.679Z,99.90
2019-03-06T22:52:47.287Z,99.90
2019-03-06T22:55:17.347Z,99.90
2019-03-06T22:57:45.903Z,99.90
2019-03-06T23:00:34.484Z,99.90
2019-03-06T23:03:02.950Z,99.90
2019-03-06T23:05:34.566Z,99.90
2019-03-06T23:08:02.963Z,99.90
2019-03-06T23:10:31.379Z,99.90
2019-03-06T23:12:59.886Z,99.90
2019-03-06T23:15:29.194Z,99.90
2019-03-06T23:17:58.003Z,99.90
2019-03-06T23:20:26.467Z,99.90
2019-03-06T23:22:55.098Z,99.90
2019-03-06T23:25:23.576Z,99.90
2019-03-06T23:27:52.039Z,99.90
2019-03-06T23:30:20.486Z,99.90
2019-03-06T23:32:49.391Z,99.90
2019-03-06T23:35:18.046Z,99.90
2019-03-06T23:37:46.570Z,99.90
2019-03-06T23:40:14.967Z,99.90
2019-03-06T23:42:43.431Z,99.90
2019-03-06T23:45:12.955Z,99.90
2019-03-06T23:47:41.738Z,99.90
2019-03-06T23:50:12.204Z,99.90
2019-03-06T23:52:58.380Z,99.90
2019-03-06T23:55:28.457Z,99.90
2019-03-06T23:57:57.210Z,99.90
